James William — WDH5573 — position and weather

sailwx.info

Track history (hours):
 
Tides and Currents Weather Stations Pressure Air Temp Water Temp Dewpoint Dewpoint Depression Visibility Wind Speed Wind Dir Waves Ship Positions

James William

Owner: Atlas Holdings, LLC, Norfolk, VA. More information available from US FCC via Universal Licensing System and Coast Guard Vessel Documentation Center.

Last reported at 2018-Jul-22 05:02 UTC. Time now 2018-Jul-22 06:38 UTC.
Position N 40°46' W 073°57'.

Length 26 m; draft 3 m.

Type: Tug. MMSI: 367198950.

Date/timePositionNaut miles runAvg speedWind from/ knotsBaromVisibWave heightAir tempDewpointWater temp
2018-Jul-22 05:02N 40°46' W 073°57'0 4.6
2018-Jul-22 05:00N 40°46' W 073°57'2 3.9
2018-Jul-22 04:30N 40°44' W 073°58'2 3.5
2018-Jul-22 04:00N 40°42' W 073°59'2 3.7
2018-Jul-22 03:31N 40°41' W 074°01'2 3.7
2018-Jul-22 03:01N 40°40' W 074°03'0 0.7
2018-Jul-22 02:30N 40°40' W 074°03'0 0.0
2018-Jul-22 02:00N 40°40' W 074°03'0 0.0
2018-Jul-22 01:31N 40°40' W 074°03'0 0.0
2018-Jul-22 01:00N 40°40' W 074°03'0 0.0
2018-Jul-22 00:30N 40°40' W 074°03'0 0.0
2018-Jul-22 00:01N 40°40' W 074°03'0 0.0
2018-Jul-21 23:30N 40°40' W 074°03'0 0.1
2018-Jul-21 23:00N 40°40' W 074°03'1 1.2
2018-Jul-21 22:31N 40°40' W 074°03'2 4.6
2018-Jul-21 22:00N 40°39' W 074°06'4 8.0
2018-Jul-21 21:28N 40°39' W 074°11'1 0.3
2018-Jul-21 19:00N 40°38' W 074°12'3 5.1
2018-Jul-21 18:30N 40°39' W 074°08'3 5.6
2018-Jul-21 18:01N 40°39' W 074°05'1 2.7
2018-Jul-21 17:30N 40°40' W 074°03'0 0.1
2018-Jul-21 17:00N 40°40' W 074°03'0 0.2
2018-Jul-21 16:31N 40°40' W 074°03'1 2.1
2018-Jul-21 16:00N 40°40' W 074°02'1 2.0
2018-Jul-21 15:30N 40°40' W 074°01'0 0.0
2018-Jul-21 15:00N 40°40' W 074°01'0 0.0
2018-Jul-21 14:30N 40°40' W 074°01'0 0.0
2018-Jul-21 13:30N 40°40' W 074°01'0 0.0
2018-Jul-21 13:00N 40°40' W 074°01'0 0.0
2018-Jul-21 12:31N 40°40' W 074°01'0 0.0
2018-Jul-21 12:00N 40°40' W 074°01'0 0.0
2018-Jul-21 11:30N 40°40' W 074°01'0 0.0
2018-Jul-21 11:00N 40°40' W 074°01'0 0.0
2018-Jul-21 10:30N 40°40' W 074°01'0 0.0
2018-Jul-21 10:00N 40°40' W 074°01'0 0.0
2018-Jul-21 09:30N 40°40' W 074°01'0 0.0
2018-Jul-21 09:01N 40°40' W 074°01'0 0.0
2018-Jul-21 08:30N 40°40' W 074°01'0 0.0
2018-Jul-21 08:00N 40°40' W 074°01'0 0.0
2018-Jul-21 07:30N 40°40' W 074°01'1 1.5
2018-Jul-21 07:00N 40°40' W 074°02'1 2.9
2018-Jul-21 06:30N 40°40' W 074°03'3 5.6
2018-Jul-21 06:00N 40°41' W 074°00'1 1.1
2018-Jul-21 05:31N 40°41' W 074°01'2 4.4
2018-Jul-21 05:00N 40°40' W 074°03'0 0.5
2018-Jul-21 04:30N 40°40' W 074°03'0 0.4
2018-Jul-21 04:01N 40°40' W 074°03'0 0.0
2018-Jul-21 03:31N 40°40' W 074°03'0 0.0
2018-Jul-21 03:00N 40°40' W 074°03'0 0.0
2018-Jul-21 02:29N 40°40' W 074°03'0 0.0
2018-Jul-21 02:00N 40°40' W 074°03'0 0.0
2018-Jul-21 01:31N 40°40' W 074°03'0 0.0
2018-Jul-21 01:00N 40°40' W 074°03'2 3.7
2018-Jul-21 00:31N 40°41' W 074°01'1 1.0
2018-Jul-21 00:00N 40°41' W 074°02'0 0.3
2018-Jul-20 23:30N 40°41' W 074°02'5 9.1
2018-Jul-20 23:00N 40°44' W 073°58'3 1.2
2018-Jul-20 20:46N 40°47' W 073°56'2 6.5
2018-Jul-20 20:31N 40°45' W 073°57'2 4.5
2018-Jul-20 20:00N 40°43' W 073°58'2 4.2
2018-Jul-20 19:30N 40°42' W 074°00'2 4.4
2018-Jul-20 19:01N 40°40' W 074°02'1 1.9
2018-Jul-20 18:31N 40°40' W 074°03'2 3.2
2018-Jul-20 18:00N 40°40' W 074°01'1 2.1
2018-Jul-20 17:30N 40°40' W 073°60'1 2.0
2018-Jul-20 17:01N 40°40' W 074°01'2 3.3
2018-Jul-20 16:30N 40°40' W 074°03'0 0.1
2018-Jul-20 16:01N 40°40' W 074°03'0 0.0
2018-Jul-20 15:31N 40°40' W 074°03'0 0.2
2018-Jul-20 15:01N 40°40' W 074°03'0 0.1
2018-Jul-20 14:30N 40°40' W 074°03'0 0.1
2018-Jul-20 14:00N 40°40' W 074°03'0 0.1
2018-Jul-20 13:30N 40°40' W 074°03'4 7.3
2018-Jul-20 13:01N 40°39' W 074°08'3 5.9
2018-Jul-20 12:30N 40°38' W 074°12'0 0.0
2018-Jul-20 12:00N 40°38' W 074°12'0 0.0
2018-Jul-20 11:30N 40°38' W 074°12'3 5.4
2018-Jul-20 11:00N 40°39' W 074°08'4 8.2
2018-Jul-20 10:31N 40°40' W 074°03'2 3.5
2018-Jul-20 10:00N 40°40' W 074°01'0 0.0
2018-Jul-20 09:30N 40°40' W 074°01'0 0.0
2018-Jul-20 09:00N 40°40' W 074°01'0 0.0
2018-Jul-20 08:30N 40°40' W 074°01'0 0.0
2018-Jul-20 08:00N 40°40' W 074°01'0 0.0
2018-Jul-20 07:31N 40°40' W 074°01'0 0.0
2018-Jul-20 07:00N 40°40' W 074°01'0 0.0
2018-Jul-20 06:30N 40°40' W 074°01'0 0.0
2018-Jul-20 06:00N 40°40' W 074°01'0 0.0
2018-Jul-20 05:30N 40°40' W 074°01'0 0.0
2018-Jul-20 05:01N 40°40' W 074°01'0 0.0
2018-Jul-20 04:31N 40°40' W 074°01'1 3.0
2018-Jul-20 04:00N 40°41' W 074°00'1 3.0
2018-Jul-20 03:30N 40°40' W 074°01'1 2.2
2018-Jul-20 03:00N 40°40' W 074°03'2 4.3
2018-Jul-20 02:31N 40°41' W 074°01'1 2.3
2018-Jul-20 02:01N 40°40' W 073°60'0 0.0
2018-Jul-20 01:30N 40°40' W 073°60'1 1.6
2018-Jul-20 01:00N 40°40' W 074°01'1 1.6
2018-Jul-20 00:31N 40°40' W 073°60'2 3.0
2018-Jul-20 00:00N 40°40' W 074°02'1 2.6
2018-Jul-19 23:31N 40°40' W 074°03'0 0.4
2018-Jul-19 23:00N 40°40' W 074°03'3 5.2
2018-Jul-19 22:31N 40°40' W 073°60'2 3.1
2018-Jul-19 22:00N 40°40' W 074°02'1 2.2
2018-Jul-19 21:31N 40°40' W 074°03'2 4.3
2018-Jul-19 21:00N 40°41' W 074°01'3 6.7
2018-Jul-19 20:30N 40°44' W 073°58'3 0.1
2018-Jul-18 15:42N 40°47' W 073°56'2 8.5
2018-Jul-18 15:30N 40°45' W 073°58'3 6.7
2018-Jul-18 15:00N 40°42' W 073°60'3 6.1
2018-Jul-18 14:30N 40°40' W 074°03'1 1.4
2018-Jul-18 13:30N 40°40' W 074°01'0 0.1
2018-Jul-18 13:00N 40°40' W 074°01'0 0.0
2018-Jul-18 12:30N 40°40' W 074°01'0 0.0
2018-Jul-18 12:01N 40°40' W 074°01'0 0.0
2018-Jul-18 11:30N 40°40' W 074°01'0 0.0
2018-Jul-18 10:30N 40°40' W 074°01'0 0.0
2018-Jul-18 10:00N 40°40' W 074°01'0 0.7
2018-Jul-18 09:31N 40°40' W 074°01'2 3.7
2018-Jul-18 09:00N 40°40' W 074°03'3 5.6
2018-Jul-18 08:31N 40°42' W 074°00'5 9.1
2018-Jul-18 08:00N 40°46' W 073°57'0 0.0
2018-Jul-18 01:06N 40°46' W 073°57'1 6.1
2018-Jul-18 01:00N 40°45' W 073°58'2 5.0
2018-Jul-18 00:30N 40°43' W 073°58'2 4.0
2018-Jul-18 00:00N 40°42' W 074°00'2 3.9
2018-Jul-17 23:30N 40°40' W 074°02'1 2.0
2018-Jul-17 23:00N 40°40' W 074°03'0 0.0
2018-Jul-17 22:31N 40°40' W 074°03'0 0.0
2018-Jul-17 22:00N 40°40' W 074°03'0 0.0
2018-Jul-17 21:30N 40°40' W 074°03'0 0.0
2018-Jul-17 21:00N 40°40' W 074°03'0 0.0
2018-Jul-17 20:30N 40°40' W 074°03'3 5.6
2018-Jul-17 20:00N 40°41' W 074°00'2 4.8
2018-Jul-17 19:31N 40°40' W 074°03'1 1.7
2018-Jul-17 19:00N 40°41' W 074°02'0 0.4
2018-Jul-17 18:30N 40°41' W 074°02'1 2.9
2018-Jul-17 18:00N 40°40' W 074°03'0 0.2
2018-Jul-17 17:30N 40°40' W 074°04'0 1.0
2018-Jul-17 17:00N 40°40' W 074°03'1 1.6
2018-Jul-17 16:30N 40°41' W 074°02'2 3.4
2018-Jul-17 16:00N 40°40' W 073°60'1 1.7
2018-Jul-17 15:30N 40°40' W 074°01'1 2.2
2018-Jul-17 15:00N 40°40' W 074°02'1 2.0
2018-Jul-17 14:30N 40°40' W 074°03'0 0.3
2018-Jul-17 14:01N 40°40' W 074°03'0 0.0
2018-Jul-17 13:31N 40°40' W 074°03'2 3.8
2018-Jul-17 13:00N 40°40' W 074°01'0 0.1
2018-Jul-17 12:30N 40°40' W 074°01'0 0.0
2018-Jul-17 12:00N 40°40' W 074°01'0 0.0
2018-Jul-17 11:30N 40°40' W 074°01'0 0.0
2018-Jul-17 11:00N 40°40' W 074°01'0 0.0
2018-Jul-17 10:31N 40°40' W 074°01'0 0.0
2018-Jul-17 10:00N 40°40' W 074°01'0 0.0
2018-Jul-17 09:30N 40°40' W 074°01'0 0.0
2018-Jul-17 09:01N 40°40' W 074°01'0 0.0
2018-Jul-17 08:30N 40°40' W 074°01'0 0.0
2018-Jul-17 08:00N 40°40' W 074°01'0 0.0
2018-Jul-17 07:30N 40°40' W 074°01'0 0.0
2018-Jul-17 07:00N 40°40' W 074°01'0 0.0
2018-Jul-17 06:31N 40°40' W 074°01'0 0.0
2018-Jul-17 06:00N 40°40' W 074°01'0 0.0
2018-Jul-17 05:31N 40°40' W 074°01'0 0.1
2018-Jul-17 05:00N 40°40' W 074°01'0 0.9
2018-Jul-17 04:30N 40°40' W 074°02'1 3.0
2018-Jul-17 04:01N 40°40' W 074°03'2 3.3
2018-Jul-17 03:31N 40°40' W 074°01'1 1.9
2018-Jul-17 03:00N 40°40' W 073°60'1 2.3
2018-Jul-17 02:30N 40°40' W 074°01'2 3.2
2018-Jul-17 02:00N 40°41' W 074°00'2 3.0
2018-Jul-17 01:30N 40°40' W 074°02'0 0.6
2018-Jul-17 01:00N 40°40' W 074°01'0 0.3
2018-Jul-17 00:30N 40°40' W 074°01'2 1.7
2018-Jul-16 23:31N 40°40' W 074°03'3 5.3
2018-Jul-16 23:00N 40°41' W 074°01'3 6.7
2018-Jul-16 22:30N 40°44' W 073°58'3 0.3
2018-Jul-16 11:45N 40°47' W 073°55'2 6.8
2018-Jul-16 11:29N 40°46' W 073°57'3 6.0
2018-Jul-16 11:00N 40°43' W 073°58'3 5.3
2018-Jul-16 10:31N 40°41' W 074°01'3 5.1
2018-Jul-16 10:01N 40°40' W 074°03'0 0.2
2018-Jul-16 09:30N 40°40' W 074°03'0 0.0
2018-Jul-16 09:00N 40°40' W 074°03'0 0.0
2018-Jul-16 08:30N 40°40' W 074°03'0 0.0
2018-Jul-16 08:00N 40°40' W 074°03'0 0.0
2018-Jul-16 07:31N 40°40' W 074°03'0 0.0
2018-Jul-16 07:01N 40°40' W 074°03'0 0.0
2018-Jul-16 06:30N 40°40' W 074°03'0 0.0
2018-Jul-16 06:00N 40°40' W 074°03'0 0.0
2018-Jul-16 05:31N 40°40' W 074°03'0 0.0
2018-Jul-16 04:59N 40°40' W 074°03'0 0.0
2018-Jul-16 04:29N 40°40' W 074°03'0 0.0
2018-Jul-16 04:01N 40°40' W 074°03'0 0.2
2018-Jul-16 03:30N 40°40' W 074°04'4 8.5
2018-Jul-16 03:00N 40°39' W 074°09'2 1.2
2018-Jul-16 01:26N 40°39' W 074°11'2 5.8
2018-Jul-16 01:01N 40°39' W 074°08'3 6.1
2018-Jul-16 00:30N 40°39' W 074°04'1 2.4
2018-Jul-16 00:00N 40°40' W 074°03'0 1.0
2018-Jul-15 23:30N 40°40' W 074°03'3 5.2
2018-Jul-15 23:01N 40°40' W 074°00'1 2.9
2018-Jul-15 22:30N 40°40' W 074°02'1 2.4
2018-Jul-15 22:00N 40°40' W 074°03'0 0.0
2018-Jul-15 21:31N 40°40' W 074°03'0 0.0
2018-Jul-15 21:00N 40°40' W 074°03'0 0.0
2018-Jul-15 20:30N 40°40' W 074°03'0 0.0
2018-Jul-15 20:00N 40°40' W 074°03'0 0.0
2018-Jul-15 19:29N 40°40' W 074°03'0 0.0
2018-Jul-15 19:00N 40°40' W 074°03'0 0.0
2018-Jul-15 18:30N 40°40' W 074°03'0 0.0
2018-Jul-15 18:00N 40°40' W 074°03'0 0.0
2018-Jul-15 17:30N 40°40' W 074°03'0 0.3
2018-Jul-15 17:00N 40°40' W 074°03'6 6.4
2018-Jul-15 16:02N 40°39' W 074°11'1 8.4
2018-Jul-15 15:57N 40°38' W 074°12'0 0.1
2018-Jul-15 14:55N 40°38' W 074°12'0 0.2
2018-Jul-15 12:52N 40°38' W 074°12'0 0.0
2018-Jul-15 12:30N 40°38' W 074°12'0 0.0
2018-Jul-15 12:00N 40°38' W 074°12'0 0.0
2018-Jul-15 11:30N 40°38' W 074°12'0 0.0
2018-Jul-15 10:58N 40°38' W 074°12'0 0.0
2018-Jul-15 10:24N 40°38' W 074°12'0 0.1
2018-Jul-15 10:00N 40°38' W 074°12'0 0.0
2018-Jul-15 09:30N 40°38' W 074°12'2 3.8
2018-Jul-15 08:57N 40°39' W 074°09'3 6.9
2018-Jul-15 08:30N 40°39' W 074°05'3 6.6
2018-Jul-15 08:00N 40°40' W 074°01'1 2.4
2018-Jul-15 07:31N 40°40' W 074°03'1 1.4
2018-Jul-15 07:00N 40°40' W 074°03'0 0.2
2018-Jul-15 06:30N 40°40' W 074°03'5 9.4
2018-Jul-15 06:01N 40°43' W 073°58'4 1.6
2018-Jul-15 03:25N 40°47' W 073°56'3 6.3
2018-Jul-15 03:00N 40°44' W 073°58'3 5.8
2018-Jul-15 02:30N 40°42' W 074°00'3 5.8
2018-Jul-15 02:01N 40°40' W 074°03'0 0.6
2018-Jul-15 01:31N 40°40' W 074°03'2 3.7
2018-Jul-15 01:01N 40°40' W 074°01'0 0.8
2018-Jul-15 00:31N 40°40' W 074°01'2 3.1
2018-Jul-15 00:01N 40°40' W 074°03'0 0.4
2018-Jul-14 23:30N 40°40' W 074°03'0 0.8
2018-Jul-14 23:01N 40°40' W 074°03'0 0.1
2018-Jul-14 22:30N 40°40' W 074°03'2 3.8
2018-Jul-14 22:00N 40°40' W 074°01'0 0.9
2018-Jul-14 21:31N 40°40' W 074°01'1 2.9
2018-Jul-14 21:01N 40°40' W 074°03'0 0.1
2018-Jul-14 20:31N 40°40' W 074°03'0 1.0
2018-Jul-14 20:01N 40°40' W 074°03'3 6.3
2018-Jul-14 19:30N 40°42' W 073°60'6 1.2
2018-Jul-14 14:52N 40°47' W 073°56'2 6.8
2018-Jul-14 14:30N 40°45' W 073°58'6 6.0
2018-Jul-14 13:30N 40°40' W 074°03'0 0.7
2018-Jul-14 13:01N 40°41' W 074°03'0 0.1
2018-Jul-14 12:31N 40°41' W 074°03'0 0.0
2018-Jul-14 12:00N 40°41' W 074°03'0 0.0
2018-Jul-14 11:30N 40°41' W 074°03'0 0.1
2018-Jul-14 11:01N 40°40' W 074°03'1 1.2
2018-Jul-14 10:31N 40°40' W 074°03'0 0.1
2018-Jul-14 10:00N 40°40' W 074°03'1 1.1
2018-Jul-14 09:31N 40°40' W 074°03'0 0.4
2018-Jul-14 09:01N 40°40' W 074°03'0 0.2
2018-Jul-14 08:31N 40°40' W 074°03'0 0.2
2018-Jul-14 08:00N 40°40' W 074°03'0 1.0
2018-Jul-14 07:31N 40°40' W 074°03'3 6.9
2018-Jul-14 07:01N 40°42' W 073°60'4 8.6
2018-Jul-14 06:30N 40°46' W 073°57'31 1.5
2018-Jul-13 10:10N 40°59' W 073°20'3 8.3
2018-Jul-13 09:48N 40°59' W 073°24'3 8.1
2018-Jul-13 09:29N 40°58' W 073°27'5 8.1
2018-Jul-13 08:53N 40°56' W 073°33'3 8.1
2018-Jul-13 08:29N 40°55' W 073°37'5 6.3
2018-Jul-13 07:42N 40°51' W 073°40'0 0.8
2018-Jul-13 07:13N 40°50' W 073°40'0 0.4
2018-Jul-13 06:41N 40°51' W 073°40'0 0.4
2018-Jul-13 06:30N 40°51' W 073°40'1 1.9
2018-Jul-13 05:59N 40°52' W 073°40'4 4.3
2018-Jul-13 05:07N 40°51' W 073°45'1 5.1
2018-Jul-13 05:00N 40°51' W 073°45'2 4.7
2018-Jul-13 04:28N 40°49' W 073°47'7 0.9
2018-Jul-12 20:28N 40°47' W 073°56'3 5.7
2018-Jul-12 20:01N 40°45' W 073°58'2 4.5
2018-Jul-12 19:30N 40°43' W 073°59'2 3.7
2018-Jul-12 19:00N 40°41' W 074°00'2 4.1
2018-Jul-12 18:31N 40°40' W 074°03'1 1.5
2018-Jul-12 18:01N 40°40' W 074°03'0 0.0
2018-Jul-12 17:31N 40°40' W 074°03'0 0.1
2018-Jul-12 17:01N 40°40' W 074°03'0 0.4
2018-Jul-12 16:30N 40°40' W 074°03'1 3.0
2018-Jul-12 16:01N 40°40' W 074°01'0 0.6
2018-Jul-12 15:31N 40°40' W 074°02'1 2.3
2018-Jul-12 15:01N 40°40' W 074°03'4 8.6
2018-Jul-12 14:31N 40°43' W 073°59'5 0.8
2018-Jul-12 08:17N 40°47' W 073°55'2 6.0
2018-Jul-12 08:00N 40°46' W 073°57'3 5.3
2018-Jul-12 07:31N 40°43' W 073°58'2 4.4
2018-Jul-12 07:01N 40°42' W 074°00'2 4.4
2018-Jul-12 06:31N 40°40' W 074°02'1 1.7
2018-Jul-12 06:00N 40°40' W 074°03'0 0.0
2018-Jul-12 05:31N 40°40' W 074°03'  
Track history (hours):
 
Tides and Currents Weather Stations Pressure Air Temp Water Temp Dewpoint Dewpoint Depression Visibility Wind Speed Wind Dir Waves Ship Positions

James William

Owner: Atlas Holdings, LLC, Norfolk, VA. More information available from US FCC via Universal Licensing System and Coast Guard Vessel Documentation Center.

Last reported at 2018-Jul-22 05:02 UTC. Time now 2018-Jul-22 06:38 UTC.
Position N 40°46' W 073°57'.

Length 26 m; draft 3 m.

Type: Tug. MMSI: 367198950.

Date/timePositionNaut miles runAvg speedWind from/ knotsBaromVisibWave heightAir tempDewpointWater temp
2018-Jul-22 05:02N 40°46' W 073°57'0 4.6
2018-Jul-22 05:00N 40°46' W 073°57'2 3.9
2018-Jul-22 04:30N 40°44' W 073°58'2 3.5
2018-Jul-22 04:00N 40°42' W 073°59'2 3.7
2018-Jul-22 03:31N 40°41' W 074°01'2 3.7
2018-Jul-22 03:01N 40°40' W 074°03'0 0.7
2018-Jul-22 02:30N 40°40' W 074°03'0 0.0
2018-Jul-22 02:00N 40°40' W 074°03'0 0.0
2018-Jul-22 01:31N 40°40' W 074°03'0 0.0
2018-Jul-22 01:00N 40°40' W 074°03'0 0.0
2018-Jul-22 00:30N 40°40' W 074°03'0 0.0
2018-Jul-22 00:01N 40°40' W 074°03'0 0.0
2018-Jul-21 23:30N 40°40' W 074°03'0 0.1
2018-Jul-21 23:00N 40°40' W 074°03'1 1.2
2018-Jul-21 22:31N 40°40' W 074°03'2 4.6
2018-Jul-21 22:00N 40°39' W 074°06'4 8.0
2018-Jul-21 21:28N 40°39' W 074°11'1 0.3
2018-Jul-21 19:00N 40°38' W 074°12'3 5.1
2018-Jul-21 18:30N 40°39' W 074°08'3 5.6
2018-Jul-21 18:01N 40°39' W 074°05'1 2.7
2018-Jul-21 17:30N 40°40' W 074°03'0 0.1
2018-Jul-21 17:00N 40°40' W 074°03'0 0.2
2018-Jul-21 16:31N 40°40' W 074°03'1 2.1
2018-Jul-21 16:00N 40°40' W 074°02'1 2.0
2018-Jul-21 15:30N 40°40' W 074°01'0 0.0
2018-Jul-21 15:00N 40°40' W 074°01'0 0.0
2018-Jul-21 14:30N 40°40' W 074°01'0 0.0
2018-Jul-21 13:30N 40°40' W 074°01'0 0.0
2018-Jul-21 13:00N 40°40' W 074°01'0 0.0
2018-Jul-21 12:31N 40°40' W 074°01'0 0.0
2018-Jul-21 12:00N 40°40' W 074°01'0 0.0
2018-Jul-21 11:30N 40°40' W 074°01'0 0.0
2018-Jul-21 11:00N 40°40' W 074°01'0 0.0
2018-Jul-21 10:30N 40°40' W 074°01'0 0.0
2018-Jul-21 10:00N 40°40' W 074°01'0 0.0
2018-Jul-21 09:30N 40°40' W 074°01'0 0.0
2018-Jul-21 09:01N 40°40' W 074°01'0 0.0
2018-Jul-21 08:30N 40°40' W 074°01'0 0.0
2018-Jul-21 08:00N 40°40' W 074°01'0 0.0
2018-Jul-21 07:30N 40°40' W 074°01'1 1.5
2018-Jul-21 07:00N 40°40' W 074°02'1 2.9
2018-Jul-21 06:30N 40°40' W 074°03'3 5.6
2018-Jul-21 06:00N 40°41' W 074°00'1 1.1
2018-Jul-21 05:31N 40°41' W 074°01'2 4.4
2018-Jul-21 05:00N 40°40' W 074°03'0 0.5
2018-Jul-21 04:30N 40°40' W 074°03'0 0.4
2018-Jul-21 04:01N 40°40' W 074°03'0 0.0
2018-Jul-21 03:31N 40°40' W 074°03'0 0.0
2018-Jul-21 03:00N 40°40' W 074°03'0 0.0
2018-Jul-21 02:29N 40°40' W 074°03'0 0.0
2018-Jul-21 02:00N 40°40' W 074°03'0 0.0
2018-Jul-21 01:31N 40°40' W 074°03'0 0.0
2018-Jul-21 01:00N 40°40' W 074°03'2 3.7
2018-Jul-21 00:31N 40°41' W 074°01'1 1.0
2018-Jul-21 00:00N 40°41' W 074°02'0 0.3
2018-Jul-20 23:30N 40°41' W 074°02'5 9.1
2018-Jul-20 23:00N 40°44' W 073°58'3 1.2
2018-Jul-20 20:46N 40°47' W 073°56'2 6.5
2018-Jul-20 20:31N 40°45' W 073°57'2 4.5
2018-Jul-20 20:00N 40°43' W 073°58'2 4.2
2018-Jul-20 19:30N 40°42' W 074°00'2 4.4
2018-Jul-20 19:01N 40°40' W 074°02'1 1.9
2018-Jul-20 18:31N 40°40' W 074°03'2 3.2
2018-Jul-20 18:00N 40°40' W 074°01'1 2.1
2018-Jul-20 17:30N 40°40' W 073°60'1 2.0
2018-Jul-20 17:01N 40°40' W 074°01'2 3.3
2018-Jul-20 16:30N 40°40' W 074°03'0 0.1
2018-Jul-20 16:01N 40°40' W 074°03'0 0.0
2018-Jul-20 15:31N 40°40' W 074°03'0 0.2
2018-Jul-20 15:01N 40°40' W 074°03'0 0.1
2018-Jul-20 14:30N 40°40' W 074°03'0 0.1
2018-Jul-20 14:00N 40°40' W 074°03'0 0.1
2018-Jul-20 13:30N 40°40' W 074°03'4 7.3
2018-Jul-20 13:01N 40°39' W 074°08'3 5.9
2018-Jul-20 12:30N 40°38' W 074°12'0 0.0
2018-Jul-20 12:00N 40°38' W 074°12'0 0.0
2018-Jul-20 11:30N 40°38' W 074°12'3 5.4
2018-Jul-20 11:00N 40°39' W 074°08'4 8.2
2018-Jul-20 10:31N 40°40' W 074°03'2 3.5
2018-Jul-20 10:00N 40°40' W 074°01'0 0.0
2018-Jul-20 09:30N 40°40' W 074°01'0 0.0
2018-Jul-20 09:00N 40°40' W 074°01'0 0.0
2018-Jul-20 08:30N 40°40' W 074°01'0 0.0
2018-Jul-20 08:00N 40°40' W 074°01'0 0.0
2018-Jul-20 07:31N 40°40' W 074°01'0 0.0
2018-Jul-20 07:00N 40°40' W 074°01'0 0.0
2018-Jul-20 06:30N 40°40' W 074°01'0 0.0
2018-Jul-20 06:00N 40°40' W 074°01'0 0.0
2018-Jul-20 05:30N 40°40' W 074°01'0 0.0
2018-Jul-20 05:01N 40°40' W 074°01'0 0.0
2018-Jul-20 04:31N 40°40' W 074°01'1 3.0
2018-Jul-20 04:00N 40°41' W 074°00'1 3.0
2018-Jul-20 03:30N 40°40' W 074°01'1 2.2
2018-Jul-20 03:00N 40°40' W 074°03'2 4.3
2018-Jul-20 02:31N 40°41' W 074°01'1 2.3
2018-Jul-20 02:01N 40°40' W 073°60'0 0.0
2018-Jul-20 01:30N 40°40' W 073°60'1 1.6
2018-Jul-20 01:00N 40°40' W 074°01'1 1.6
2018-Jul-20 00:31N 40°40' W 073°60'2 3.0
2018-Jul-20 00:00N 40°40' W 074°02'1 2.6
2018-Jul-19 23:31N 40°40' W 074°03'0 0.4
2018-Jul-19 23:00N 40°40' W 074°03'3 5.2
2018-Jul-19 22:31N 40°40' W 073°60'2 3.1
2018-Jul-19 22:00N 40°40' W 074°02'1 2.2
2018-Jul-19 21:31N 40°40' W 074°03'2 4.3
2018-Jul-19 21:00N 40°41' W 074°01'3 6.7
2018-Jul-19 20:30N 40°44' W 073°58'3 0.1
2018-Jul-18 15:42N 40°47' W 073°56'2 8.5
2018-Jul-18 15:30N 40°45' W 073°58'3 6.7
2018-Jul-18 15:00N 40°42' W 073°60'3 6.1
2018-Jul-18 14:30N 40°40' W 074°03'1 1.4
2018-Jul-18 13:30N 40°40' W 074°01'0 0.1
2018-Jul-18 13:00N 40°40' W 074°01'0 0.0
2018-Jul-18 12:30N 40°40' W 074°01'0 0.0
2018-Jul-18 12:01N 40°40' W 074°01'0 0.0
2018-Jul-18 11:30N 40°40' W 074°01'0 0.0
2018-Jul-18 10:30N 40°40' W 074°01'0 0.0
2018-Jul-18 10:00N 40°40' W 074°01'0 0.7
2018-Jul-18 09:31N 40°40' W 074°01'2 3.7
2018-Jul-18 09:00N 40°40' W 074°03'3 5.6
2018-Jul-18 08:31N 40°42' W 074°00'5 9.1
2018-Jul-18 08:00N 40°46' W 073°57'0 0.0
2018-Jul-18 01:06N 40°46' W 073°57'1 6.1
2018-Jul-18 01:00N 40°45' W 073°58'2 5.0
2018-Jul-18 00:30N 40°43' W 073°58'2 4.0
2018-Jul-18 00:00N 40°42' W 074°00'2 3.9
2018-Jul-17 23:30N 40°40' W 074°02'1 2.0
2018-Jul-17 23:00N 40°40' W 074°03'0 0.0
2018-Jul-17 22:31N 40°40' W 074°03'0 0.0
2018-Jul-17 22:00N 40°40' W 074°03'0 0.0
2018-Jul-17 21:30N 40°40' W 074°03'0 0.0
2018-Jul-17 21:00N 40°40' W 074°03'0 0.0
2018-Jul-17 20:30N 40°40' W 074°03'3 5.6
2018-Jul-17 20:00N 40°41' W 074°00'2 4.8
2018-Jul-17 19:31N 40°40' W 074°03'1 1.7
2018-Jul-17 19:00N 40°41' W 074°02'0 0.4
2018-Jul-17 18:30N 40°41' W 074°02'1 2.9
2018-Jul-17 18:00N 40°40' W 074°03'0 0.2
2018-Jul-17 17:30N 40°40' W 074°04'0 1.0
2018-Jul-17 17:00N 40°40' W 074°03'1 1.6
2018-Jul-17 16:30N 40°41' W 074°02'2 3.4
2018-Jul-17 16:00N 40°40' W 073°60'1 1.7
2018-Jul-17 15:30N 40°40' W 074°01'1 2.2
2018-Jul-17 15:00N 40°40' W 074°02'1 2.0
2018-Jul-17 14:30N 40°40' W 074°03'0 0.3
2018-Jul-17 14:01N 40°40' W 074°03'0 0.0
2018-Jul-17 13:31N 40°40' W 074°03'2 3.8
2018-Jul-17 13:00N 40°40' W 074°01'0 0.1
2018-Jul-17 12:30N 40°40' W 074°01'0 0.0
2018-Jul-17 12:00N 40°40' W 074°01'0 0.0
2018-Jul-17 11:30N 40°40' W 074°01'0 0.0
2018-Jul-17 11:00N 40°40' W 074°01'0 0.0
2018-Jul-17 10:31N 40°40' W 074°01'0 0.0
2018-Jul-17 10:00N 40°40' W 074°01'0 0.0
2018-Jul-17 09:30N 40°40' W 074°01'0 0.0
2018-Jul-17 09:01N 40°40' W 074°01'0 0.0
2018-Jul-17 08:30N 40°40' W 074°01'0 0.0
2018-Jul-17 08:00N 40°40' W 074°01'0 0.0
2018-Jul-17 07:30N 40°40' W 074°01'0 0.0
2018-Jul-17 07:00N 40°40' W 074°01'0 0.0
2018-Jul-17 06:31N 40°40' W 074°01'0 0.0
2018-Jul-17 06:00N 40°40' W 074°01'0 0.0
2018-Jul-17 05:31N 40°40' W 074°01'0 0.1
2018-Jul-17 05:00N 40°40' W 074°01'0 0.9
2018-Jul-17 04:30N 40°40' W 074°02'1 3.0
2018-Jul-17 04:01N 40°40' W 074°03'2 3.3
2018-Jul-17 03:31N 40°40' W 074°01'1 1.9
2018-Jul-17 03:00N 40°40' W 073°60'1 2.3
2018-Jul-17 02:30N 40°40' W 074°01'2 3.2
2018-Jul-17 02:00N 40°41' W 074°00'2 3.0
2018-Jul-17 01:30N 40°40' W 074°02'0 0.6
2018-Jul-17 01:00N 40°40' W 074°01'0 0.3
2018-Jul-17 00:30N 40°40' W 074°01'2 1.7
2018-Jul-16 23:31N 40°40' W 074°03'3 5.3
2018-Jul-16 23:00N 40°41' W 074°01'3 6.7
2018-Jul-16 22:30N 40°44' W 073°58'3 0.3
2018-Jul-16 11:45N 40°47' W 073°55'2 6.8
2018-Jul-16 11:29N 40°46' W 073°57'3 6.0
2018-Jul-16 11:00N 40°43' W 073°58'3 5.3
2018-Jul-16 10:31N 40°41' W 074°01'3 5.1
2018-Jul-16 10:01N 40°40' W 074°03'0 0.2
2018-Jul-16 09:30N 40°40' W 074°03'0 0.0
2018-Jul-16 09:00N 40°40' W 074°03'0 0.0
2018-Jul-16 08:30N 40°40' W 074°03'0 0.0
2018-Jul-16 08:00N 40°40' W 074°03'0 0.0
2018-Jul-16 07:31N 40°40' W 074°03'0 0.0
2018-Jul-16 07:01N 40°40' W 074°03'0 0.0
2018-Jul-16 06:30N 40°40' W 074°03'0 0.0
2018-Jul-16 06:00N 40°40' W 074°03'0 0.0
2018-Jul-16 05:31N 40°40' W 074°03'0 0.0
2018-Jul-16 04:59N 40°40' W 074°03'0 0.0
2018-Jul-16 04:29N 40°40' W 074°03'0 0.0
2018-Jul-16 04:01N 40°40' W 074°03'0 0.2
2018-Jul-16 03:30N 40°40' W 074°04'4 8.5
2018-Jul-16 03:00N 40°39' W 074°09'2 1.2
2018-Jul-16 01:26N 40°39' W 074°11'2 5.8
2018-Jul-16 01:01N 40°39' W 074°08'3 6.1
2018-Jul-16 00:30N 40°39' W 074°04'1 2.4
2018-Jul-16 00:00N 40°40' W 074°03'0 1.0
2018-Jul-15 23:30N 40°40' W 074°03'3 5.2
2018-Jul-15 23:01N 40°40' W 074°00'1 2.9
2018-Jul-15 22:30N 40°40' W 074°02'1 2.4
2018-Jul-15 22:00N 40°40' W 074°03'0 0.0
2018-Jul-15 21:31N 40°40' W 074°03'0 0.0
2018-Jul-15 21:00N 40°40' W 074°03'0 0.0
2018-Jul-15 20:30N 40°40' W 074°03'0 0.0
2018-Jul-15 20:00N 40°40' W 074°03'0 0.0
2018-Jul-15 19:29N 40°40' W 074°03'0 0.0
2018-Jul-15 19:00N 40°40' W 074°03'0 0.0
2018-Jul-15 18:30N 40°40' W 074°03'0 0.0
2018-Jul-15 18:00N 40°40' W 074°03'0 0.0
2018-Jul-15 17:30N 40°40' W 074°03'0 0.3
2018-Jul-15 17:00N 40°40' W 074°03'6 6.4
2018-Jul-15 16:02N 40°39' W 074°11'1 8.4
2018-Jul-15 15:57N 40°38' W 074°12'0 0.1
2018-Jul-15 14:55N 40°38' W 074°12'0 0.2
2018-Jul-15 12:52N 40°38' W 074°12'0 0.0
2018-Jul-15 12:30N 40°38' W 074°12'0 0.0
2018-Jul-15 12:00N 40°38' W 074°12'0 0.0
2018-Jul-15 11:30N 40°38' W 074°12'0 0.0
2018-Jul-15 10:58N 40°38' W 074°12'0 0.0
2018-Jul-15 10:24N 40°38' W 074°12'0 0.1
2018-Jul-15 10:00N 40°38' W 074°12'0 0.0
2018-Jul-15 09:30N 40°38' W 074°12'2 3.8
2018-Jul-15 08:57N 40°39' W 074°09'3 6.9
2018-Jul-15 08:30N 40°39' W 074°05'3 6.6
2018-Jul-15 08:00N 40°40' W 074°01'1 2.4
2018-Jul-15 07:31N 40°40' W 074°03'1 1.4
2018-Jul-15 07:00N 40°40' W 074°03'0 0.2
2018-Jul-15 06:30N 40°40' W 074°03'5 9.4
2018-Jul-15 06:01N 40°43' W 073°58'4 1.6
2018-Jul-15 03:25N 40°47' W 073°56'3 6.3
2018-Jul-15 03:00N 40°44' W 073°58'3 5.8
2018-Jul-15 02:30N 40°42' W 074°00'3 5.8
2018-Jul-15 02:01N 40°40' W 074°03'0 0.6
2018-Jul-15 01:31N 40°40' W 074°03'2 3.7
2018-Jul-15 01:01N 40°40' W 074°01'0 0.8
2018-Jul-15 00:31N 40°40' W 074°01'2 3.1
2018-Jul-15 00:01N 40°40' W 074°03'0 0.4
2018-Jul-14 23:30N 40°40' W 074°03'0 0.8
2018-Jul-14 23:01N 40°40' W 074°03'0 0.1
2018-Jul-14 22:30N 40°40' W 074°03'2 3.8
2018-Jul-14 22:00N 40°40' W 074°01'0 0.9
2018-Jul-14 21:31N 40°40' W 074°01'1 2.9
2018-Jul-14 21:01N 40°40' W 074°03'0 0.1
2018-Jul-14 20:31N 40°40' W 074°03'0 1.0
2018-Jul-14 20:01N 40°40' W 074°03'3 6.3
2018-Jul-14 19:30N 40°42' W 073°60'6 1.2
2018-Jul-14 14:52N 40°47' W 073°56'2 6.8
2018-Jul-14 14:30N 40°45' W 073°58'6 6.0
2018-Jul-14 13:30N 40°40' W 074°03'0 0.7
2018-Jul-14 13:01N 40°41' W 074°03'0 0.1
2018-Jul-14 12:31N 40°41' W 074°03'0 0.0
2018-Jul-14 12:00N 40°41' W 074°03'0 0.0
2018-Jul-14 11:30N 40°41' W 074°03'0 0.1
2018-Jul-14 11:01N 40°40' W 074°03'1 1.2
2018-Jul-14 10:31N 40°40' W 074°03'0 0.1
2018-Jul-14 10:00N 40°40' W 074°03'1 1.1
2018-Jul-14 09:31N 40°40' W 074°03'0 0.4
2018-Jul-14 09:01N 40°40' W 074°03'0 0.2
2018-Jul-14 08:31N 40°40' W 074°03'0 0.2
2018-Jul-14 08:00N 40°40' W 074°03'0 1.0
2018-Jul-14 07:31N 40°40' W 074°03'3 6.9
2018-Jul-14 07:01N 40°42' W 073°60'4 8.6
2018-Jul-14 06:30N 40°46' W 073°57'31 1.5
2018-Jul-13 10:10N 40°59' W 073°20'3 8.3
2018-Jul-13 09:48N 40°59' W 073°24'3 8.1
2018-Jul-13 09:29N 40°58' W 073°27'5 8.1
2018-Jul-13 08:53N 40°56' W 073°33'3 8.1
2018-Jul-13 08:29N 40°55' W 073°37'5 6.3
2018-Jul-13 07:42N 40°51' W 073°40'0 0.8
2018-Jul-13 07:13N 40°50' W 073°40'0 0.4
2018-Jul-13 06:41N 40°51' W 073°40'0 0.4
2018-Jul-13 06:30N 40°51' W 073°40'1 1.9
2018-Jul-13 05:59N 40°52' W 073°40'4 4.3
2018-Jul-13 05:07N 40°51' W 073°45'1 5.1
2018-Jul-13 05:00N 40°51' W 073°45'2 4.7
2018-Jul-13 04:28N 40°49' W 073°47'7 0.9
2018-Jul-12 20:28N 40°47' W 073°56'3 5.7
2018-Jul-12 20:01N 40°45' W 073°58'2 4.5
2018-Jul-12 19:30N 40°43' W 073°59'2 3.7
2018-Jul-12 19:00N 40°41' W 074°00'2 4.1
2018-Jul-12 18:31N 40°40' W 074°03'1 1.5
2018-Jul-12 18:01N 40°40' W 074°03'0 0.0
2018-Jul-12 17:31N 40°40' W 074°03'0 0.1
2018-Jul-12 17:01N 40°40' W 074°03'0 0.4
2018-Jul-12 16:30N 40°40' W 074°03'1 3.0
2018-Jul-12 16:01N 40°40' W 074°01'0 0.6
2018-Jul-12 15:31N 40°40' W 074°02'1 2.3
2018-Jul-12 15:01N 40°40' W 074°03'4 8.6
2018-Jul-12 14:31N 40°43' W 073°59'5 0.8
2018-Jul-12 08:17N 40°47' W 073°55'2 6.0
2018-Jul-12 08:00N 40°46' W 073°57'3 5.3
2018-Jul-12 07:31N 40°43' W 073°58'2 4.4
2018-Jul-12 07:01N 40°42' W 074°00'2 4.4
2018-Jul-12 06:31N 40°40' W 074°02'1 1.7
2018-Jul-12 06:00N 40°40' W 074°03'0 0.0
2018-Jul-12 05:31N 40°40' W 074°03'  

Dump ship's entire track history